Time;durP1;ratioP1;P1;durP2;ratioP2;P2;SDS_P1;SDS_P2;PMS_P1;PMS_P2;Temp;Humidity;BMP_temperature;BMP_pressure;BME280_temperature;BME280_humidity;BME280_pressure;Samples;Min_cycle;Max_cycle;Signal;HPM_P1;HPM_P2
2021/05/08 00:01:52;;;;;;;1.70;1.35;;;;;;;;;;5072778;28;20020;-74
2021/05/08 00:04:18;;;;;;;2.03;1.38;;;;;;;;;;5073197;28;20055;-74
2021/05/08 00:06:45;;;;;;;1.80;1.20;;;;;;;;;;5072776;28;20036;-74
2021/05/08 00:09:12;;;;;;;2.55;1.38;;;;;;;;;;5073036;28;20052;-74
2021/05/08 00:11:38;;;;;;;3.00;1.20;;;;;;;;;;5066289;28;20021;-73
2021/05/08 00:14:04;;;;;;;2.80;1.40;;;;;;;;;;5056447;28;20033;-73
2021/05/08 00:16:30;;;;;;;2.70;1.38;;;;;;;;;;5034712;28;20410;-72
2021/05/08 00:18:57;;;;;;;4.20;1.60;;;;;;;;;;5052496;28;20040;-75
2021/05/08 00:21:23;;;;;;;4.38;1.70;;;;;;;;;;5052574;28;20029;-74
2021/05/08 00:23:49;;;;;;;3.00;1.55;;;;;;;;;;5052407;28;20025;-75
2021/05/08 00:26:15;;;;;;;2.80;1.80;;;;;;;;;;5052745;28;20103;-75
2021/05/08 00:28:41;;;;;;;4.05;2.17;;;;;;;;;;5052460;28;20033;-75
2021/05/08 00:31:07;;;;;;;2.72;1.70;;;;;;;;;;5052212;28;20055;-74
2021/05/08 00:33:33;;;;;;;2.03;1.50;;;;;;;;;;5052388;28;20041;-75
2021/05/08 00:35:59;;;;;;;3.33;1.50;;;;;;;;;;5052132;28;20728;-74
2021/05/08 00:38:25;;;;;;;2.10;1.40;;;;;;;;;;5052456;28;20457;-75
2021/05/08 00:40:51;;;;;;;2.50;1.52;;;;;;;;;;5052457;28;20051;-74
2021/05/08 00:43:17;;;;;;;3.40;1.55;;;;;;;;;;5052104;28;20107;-74
2021/05/08 00:45:44;;;;;;;2.72;1.50;;;;;;;;;;5052192;28;20059;-74
2021/05/08 00:48:11;;;;;;;3.33;1.48;;;;;;;;;;5052357;28;20068;-74
2021/05/08 00:50:37;;;;;;;4.53;1.35;;;;;;;;;;5034027;28;20094;-74
2021/05/08 00:53:05;;;;;;;3.58;1.70;;;;;;;;;;5051925;28;20083;-74
2021/05/08 00:55:31;;;;;;;2.92;1.83;;;;;;;;;;5052184;28;20074;-75
2021/05/08 00:57:57;;;;;;;4.07;1.67;;;;;;;;;;5052347;28;20025;-75
2021/05/08 01:00:23;;;;;;;3.33;1.80;;;;;;;;;;5051580;28;20018;-75
2021/05/08 01:02:49;;;;;;;2.15;1.48;;;;;;;;;;5051373;28;20028;-74
2021/05/08 01:05:16;;;;;;;2.95;2.10;;;;;;;;;;5051995;28;20111;-74
2021/05/08 01:07:43;;;;;;;3.97;1.95;;;;;;;;;;5051712;28;20031;-75
2021/05/08 01:10:10;;;;;;;2.83;1.80;;;;;;;;;;5052188;28;20053;-75
2021/05/08 01:12:37;;;;;;;2.70;1.63;;;;;;;;;;5053230;28;20021;-74
2021/05/08 01:15:04;;;;;;;3.22;1.70;;;;;;;;;;5053843;28;20090;-75
2021/05/08 01:17:30;;;;;;;3.00;1.80;;;;;;;;;;5051541;28;20017;-74
2021/05/08 01:19:56;;;;;;;2.63;1.80;;;;;;;;;;5051676;28;20017;-74
2021/05/08 01:22:22;;;;;;;2.85;1.90;;;;;;;;;;5051287;28;20108;-75
2021/05/08 01:24:49;;;;;;;3.55;1.95;;;;;;;;;;5051309;28;20358;-75
2021/05/08 01:27:15;;;;;;;3.90;2.03;;;;;;;;;;5051957;28;20103;-74
2021/05/08 01:29:41;;;;;;;3.22;2.15;;;;;;;;;;5051359;28;20032;-74
2021/05/08 01:32:07;;;;;;;3.55;2.20;;;;;;;;;;5051117;28;20041;-74
2021/05/08 01:34:33;;;;;;;5.25;2.03;;;;;;;;;;5051349;28;20122;-74
2021/05/08 01:36:59;;;;;;;3.65;2.05;;;;;;;;;;5051286;28;20028;-74
2021/05/08 01:39:25;;;;;;;5.05;2.55;;;;;;;;;;5051210;28;20036;-75
2021/05/08 01:41:51;;;;;;;3.72;2.45;;;;;;;;;;5051610;28;20099;-73
2021/05/08 01:44:17;;;;;;;3.72;2.20;;;;;;;;;;5051086;28;20029;-73
2021/05/08 01:46:43;;;;;;;4.47;2.45;;;;;;;;;;5051048;28;20029;-74
2021/05/08 01:49:09;;;;;;;4.05;2.30;;;;;;;;;;5051267;28;20028;-73
2021/05/08 01:51:35;;;;;;;3.05;2.17;;;;;;;;;;5050725;28;20043;-73
2021/05/08 01:54:01;;;;;;;5.03;2.40;;;;;;;;;;5051046;28;20033;-73
2021/05/08 01:56:27;;;;;;;4.13;2.58;;;;;;;;;;5050969;28;20075;-73
2021/05/08 01:58:53;;;;;;;3.72;2.20;;;;;;;;;;5047978;28;20745;-73
2021/05/08 02:01:19;;;;;;;3.92;2.50;;;;;;;;;;5046139;28;20116;-74
2021/05/08 02:03:45;;;;;;;4.05;2.35;;;;;;;;;;5049195;28;20044;-74
2021/05/08 02:06:11;;;;;;;3.67;2.30;;;;;;;;;;5050757;28;20025;-74
2021/05/08 02:08:38;;;;;;;4.97;2.75;;;;;;;;;;5050786;28;20048;-74
2021/05/08 02:11:04;;;;;;;4.38;2.53;;;;;;;;;;5050351;28;20402;-74
2021/05/08 02:13:30;;;;;;;3.80;2.55;;;;;;;;;;5049846;28;20036;-74
2021/05/08 02:15:56;;;;;;;4.38;2.40;;;;;;;;;;5049738;28;20028;-73
2021/05/08 02:18:22;;;;;;;3.33;2.40;;;;;;;;;;5050556;28;20040;-73
2021/05/08 02:20:48;;;;;;;3.97;2.25;;;;;;;;;;5050625;28;20194;-74
2021/05/08 02:23:17;;;;;;;3.88;2.40;;;;;;;;;;5050429;28;20110;-73
2021/05/08 02:25:43;;;;;;;4.40;2.60;;;;;;;;;;5050547;28;20494;-73
2021/05/08 02:28:09;;;;;;;4.65;2.80;;;;;;;;;;5050272;28;20380;-73
2021/05/08 02:30:38;;;;;;;4.72;2.70;;;;;;;;;;5050494;28;20480;-73
2021/05/08 02:33:05;;;;;;;5.15;2.83;;;;;;;;;;5049682;28;20044;-73
2021/05/08 02:35:31;;;;;;;4.15;2.67;;;;;;;;;;5050587;28;20033;-73
2021/05/08 02:37:58;;;;;;;5.90;2.67;;;;;;;;;;5050039;28;20021;-73
2021/05/08 02:40:28;;;;;;;5.00;3.33;;;;;;;;;;5032254;28;20033;-73
2021/05/08 02:42:54;;;;;;;4.72;2.78;;;;;;;;;;5050663;28;20044;-73
2021/05/08 02:45:20;;;;;;;4.15;2.70;;;;;;;;;;5050224;28;20487;-73
2021/05/08 02:47:47;;;;;;;5.07;2.90;;;;;;;;;;5050420;28;20059;-73
2021/05/08 02:50:15;;;;;;;4.47;3.00;;;;;;;;;;5050052;28;20778;-73
2021/05/08 02:52:41;;;;;;;4.78;2.90;;;;;;;;;;5050128;28;20040;-74
2021/05/08 02:55:08;;;;;;;5.35;2.78;;;;;;;;;;5049983;28;20040;-74
2021/05/08 02:57:35;;;;;;;4.28;2.65;;;;;;;;;;5050181;28;20032;-74
2021/05/08 03:00:01;;;;;;;5.10;2.83;;;;;;;;;;5049892;28;20766;-75
2021/05/08 03:02:27;;;;;;;4.05;2.85;;;;;;;;;;5049693;28;20040;-74
2021/05/08 03:04:53;;;;;;;5.55;2.95;;;;;;;;;;5050036;28;20052;-74
2021/05/08 03:07:19;;;;;;;4.93;3.33;;;;;;;;;;5050316;28;20464;-74
2021/05/08 03:09:45;;;;;;;6.15;3.40;;;;;;;;;;5051544;28;20864;-74
2021/05/08 03:12:11;;;;;;;5.65;3.00;;;;;;;;;;5053817;28;20511;-74
2021/05/08 03:14:38;;;;;;;4.75;3.17;;;;;;;;;;5053875;28;20472;-74
2021/05/08 03:17:04;;;;;;;4.72;3.08;;;;;;;;;;5036083;28;20032;-74
2021/05/08 03:19:30;;;;;;;8.30;3.40;;;;;;;;;;5054145;28;20036;-74
2021/05/08 03:21:56;;;;;;;6.43;3.33;;;;;;;;;;5035601;28;20029;-74
2021/05/08 03:24:22;;;;;;;4.68;3.58;;;;;;;;;;5054087;28;20032;-74
2021/05/08 03:26:49;;;;;;;6.10;3.55;;;;;;;;;;5035734;28;20039;-75
2021/05/08 03:29:15;;;;;;;8.95;3.58;;;;;;;;;;5053468;28;20056;-74
2021/05/08 03:31:41;;;;;;;9.63;5.22;;;;;;;;;;5053498;28;20064;-74
2021/05/08 03:34:07;;;;;;;5.45;3.67;;;;;;;;;;5035294;28;20041;-74
2021/05/08 03:36:33;;;;;;;4.78;3.47;;;;;;;;;;5053824;28;20079;-74
2021/05/08 03:38:59;;;;;;;6.13;3.63;;;;;;;;;;5053315;28;20083;-75
2021/05/08 03:41:25;;;;;;;5.13;3.03;;;;;;;;;;5035804;28;20037;-75
2021/05/08 03:43:51;;;;;;;6.47;3.20;;;;;;;;;;5035245;28;20060;-74
2021/05/08 03:46:17;;;;;;;6.00;3.78;;;;;;;;;;5053317;28;20024;-74
2021/05/08 03:48:44;;;;;;;6.70;3.80;;;;;;;;;;5053595;28;20083;-74
2021/05/08 03:51:10;;;;;;;5.78;3.55;;;;;;;;;;5053197;28;20021;-74
2021/05/08 03:53:36;;;;;;;8.10;3.65;;;;;;;;;;5052775;28;20539;-74
2021/05/08 03:56:03;;;;;;;5.65;3.42;;;;;;;;;;5053329;28;20028;-74
2021/05/08 03:58:30;;;;;;;6.30;3.92;;;;;;;;;;5053126;28;20385;-75
2021/05/08 04:00:57;;;;;;;6.45;3.80;;;;;;;;;;5052901;28;20507;-74
2021/05/08 04:03:23;;;;;;;5.95;3.60;;;;;;;;;;5053055;28;20044;-74
2021/05/08 04:05:50;;;;;;;5.80;3.95;;;;;;;;;;5053137;28;20040;-74
2021/05/08 04:08:16;;;;;;;5.13;3.60;;;;;;;;;;5053251;28;20056;-74
2021/05/08 04:10:45;;;;;;;5.72;3.88;;;;;;;;;;5052768;28;20033;-74
2021/05/08 04:13:11;;;;;;;6.53;3.72;;;;;;;;;;5053221;28;20072;-75
2021/05/08 04:15:37;;;;;;;6.97;3.67;;;;;;;;;;5052663;28;20029;-75
2021/05/08 04:18:03;;;;;;;4.72;3.30;;;;;;;;;;5052610;28;20032;-74
2021/05/08 04:20:29;;;;;;;7.38;4.57;;;;;;;;;;5052966;28;20468;-74
2021/05/08 04:22:55;;;;;;;4.35;2.95;;;;;;;;;;5052096;28;20089;-74
2021/05/08 04:25:21;;;;;;;4.57;3.25;;;;;;;;;;5052870;28;20025;-74
2021/05/08 04:27:47;;;;;;;4.82;3.40;;;;;;;;;;5052513;28;20024;-74
2021/05/08 04:30:13;;;;;;;6.00;3.50;;;;;;;;;;5052850;28;20116;-74
2021/05/08 04:32:39;;;;;;;6.00;3.63;;;;;;;;;;5051889;28;20041;-74
2021/05/08 04:35:06;;;;;;;5.32;3.38;;;;;;;;;;5052671;28;20033;-75
2021/05/08 04:37:32;;;;;;;5.97;3.63;;;;;;;;;;5052275;28;20151;-74
2021/05/08 04:39:58;;;;;;;3.97;3.00;;;;;;;;;;5034643;28;20380;-74
2021/05/08 04:42:24;;;;;;;5.95;3.70;;;;;;;;;;5052366;28;20365;-73
2021/05/08 04:44:50;;;;;;;5.00;4.03;;;;;;;;;;5034217;28;20025;-74
2021/05/08 04:47:20;;;;;;;5.70;3.80;;;;;;;;;;5052118;28;20021;-74
2021/05/08 04:49:46;;;;;;;6.78;3.85;;;;;;;;;;5052026;28;20104;-74
2021/05/08 04:52:12;;;;;;;6.90;3.65;;;;;;;;;;5052101;28;20036;-74
2021/05/08 04:54:38;;;;;;;8.13;3.67;;;;;;;;;;5051961;28;20033;-74
2021/05/08 04:57:04;;;;;;;3.97;3.03;;;;;;;;;;5052570;28;20032;-74
2021/05/08 04:59:30;;;;;;;4.03;3.08;;;;;;;;;;5051917;28;20128;-75
2021/05/08 05:01:57;;;;;;;4.65;3.38;;;;;;;;;;5051990;28;20532;-74
2021/05/08 05:04:23;;;;;;;4.28;3.35;;;;;;;;;;5051934;28;20029;-74
2021/05/08 05:06:49;;;;;;;8.13;3.33;;;;;;;;;;5052130;28;20064;-74
2021/05/08 05:09:15;;;;;;;6.22;3.40;;;;;;;;;;5051779;28;20033;-74
2021/05/08 05:11:41;;;;;;;5.15;3.35;;;;;;;;;;5050682;28;20514;-74
2021/05/08 05:14:07;;;;;;;6.05;3.38;;;;;;;;;;5048144;28;20123;-74
2021/05/08 05:16:33;;;;;;;5.57;3.13;;;;;;;;;;5051534;28;20428;-75
2021/05/08 05:18:59;;;;;;;6.20;2.78;;;;;;;;;;5051842;28;20104;-75
2021/05/08 05:21:25;;;;;;;4.60;3.30;;;;;;;;;;5051336;28;20078;-75
2021/05/08 05:23:51;;;;;;;6.82;3.28;;;;;;;;;;5051275;28;20412;-75
2021/05/08 05:26:17;;;;;;;5.90;3.33;;;;;;;;;;5051647;28;20028;-75
2021/05/08 05:28:43;;;;;;;4.53;3.15;;;;;;;;;;5051656;28;20029;-75
2021/05/08 05:31:09;;;;;;;6.43;3.28;;;;;;;;;;5050970;28;20017;-75
2021/05/08 05:33:36;;;;;;;5.32;3.08;;;;;;;;;;5050444;28;20087;-75
2021/05/08 05:36:02;;;;;;;4.82;3.50;;;;;;;;;;5051455;28;20025;-75
2021/05/08 05:38:28;;;;;;;5.47;3.30;;;;;;;;;;5051177;28;20105;-75
2021/05/08 05:40:55;;;;;;;5.32;3.47;;;;;;;;;;5051593;28;20021;-74
2021/05/08 05:43:21;;;;;;;5.68;3.00;;;;;;;;;;5051241;28;20029;-75
2021/05/08 05:45:47;;;;;;;4.32;3.25;;;;;;;;;;5033069;28;20427;-75
2021/05/08 05:48:13;;;;;;;5.35;3.38;;;;;;;;;;5051024;28;20079;-75
2021/05/08 05:50:40;;;;;;;4.80;3.10;;;;;;;;;;5051084;28;20473;-76
2021/05/08 05:53:06;;;;;;;5.18;3.50;;;;;;;;;;5050689;28;20599;-75
2021/05/08 05:55:33;;;;;;;5.00;3.30;;;;;;;;;;5050953;28;20021;-75
2021/05/08 05:57:59;;;;;;;7.90;3.33;;;;;;;;;;5050707;28;20025;-75
2021/05/08 06:00:25;;;;;;;3.83;3.00;;;;;;;;;;5050623;28;20068;-74
2021/05/08 06:02:51;;;;;;;5.35;3.28;;;;;;;;;;5050911;28;20039;-75
2021/05/08 06:05:17;;;;;;;5.47;3.13;;;;;;;;;;5050582;28;20029;-75
2021/05/08 06:07:43;;;;;;;6.15;3.30;;;;;;;;;;5050696;28;20024;-75
2021/05/08 06:10:10;;;;;;;5.28;3.30;;;;;;;;;;5050616;28;20025;-75
2021/05/08 06:12:37;;;;;;;8.75;4.07;;;;;;;;;;5050758;28;20029;-75
2021/05/08 06:15:03;;;;;;;6.68;3.47;;;;;;;;;;5050512;28;20029;-75
2021/05/08 06:17:29;;;;;;;6.90;3.03;;;;;;;;;;5050864;28;20029;-75
2021/05/08 06:19:55;;;;;;;4.85;3.17;;;;;;;;;;5050373;28;20037;-75
2021/05/08 06:22:22;;;;;;;6.57;3.38;;;;;;;;;;5050590;28;20106;-74
2021/05/08 06:24:48;;;;;;;4.45;3.28;;;;;;;;;;5050282;28;20519;-75
2021/05/08 06:27:14;;;;;;;6.03;3.47;;;;;;;;;;5050386;28;20044;-74
2021/05/08 06:29:40;;;;;;;8.35;3.53;;;;;;;;;;5050684;28;20076;-74
2021/05/08 06:32:09;;;;;;;5.85;3.25;;;;;;;;;;5022499;28;20046;-74
2021/05/08 06:34:35;;;;;;;6.03;3.58;;;;;;;;;;5030658;28;20044;-75
2021/05/08 06:37:02;;;;;;;5.28;3.10;;;;;;;;;;5030113;28;20496;-75
2021/05/08 06:39:28;;;;;;;5.18;3.22;;;;;;;;;;5030195;28;20033;-74
2021/05/08 06:41:55;;;;;;;4.18;2.72;;;;;;;;;;5030332;28;20033;-75
2021/05/08 06:44:21;;;;;;;4.63;3.10;;;;;;;;;;5029862;28;20489;-75
2021/05/08 06:46:47;;;;;;;4.75;3.15;;;;;;;;;;5030256;28;20033;-75
2021/05/08 06:49:13;;;;;;;4.85;3.13;;;;;;;;;;5029896;28;20021;-75
2021/05/08 06:51:39;;;;;;;5.47;3.42;;;;;;;;;;5040872;28;20028;-75
2021/05/08 06:54:06;;;;;;;5.75;3.08;;;;;;;;;;5035184;28;20050;-73
2021/05/08 06:56:32;;;;;;;5.63;3.28;;;;;;;;;;5045283;28;20029;-74
2021/05/08 06:58:58;;;;;;;4.40;3.00;;;;;;;;;;5049930;28;20033;-73
2021/05/08 07:01:24;;;;;;;5.65;3.60;;;;;;;;;;5049992;28;20099;-73
2021/05/08 07:03:50;;;;;;;4.47;2.90;;;;;;;;;;5049724;28;20108;-73
2021/05/08 07:06:16;;;;;;;4.65;3.38;;;;;;;;;;5049943;28;20024;-73
2021/05/08 07:08:43;;;;;;;5.20;3.03;;;;;;;;;;5049959;28;20427;-73
2021/05/08 07:11:09;;;;;;;5.95;3.25;;;;;;;;;;5050236;28;20029;-74
2021/05/08 07:13:35;;;;;;;5.70;3.22;;;;;;;;;;5049470;28;20060;-73
2021/05/08 07:16:01;;;;;;;5.55;3.50;;;;;;;;;;5049563;28;20075;-74
2021/05/08 07:18:27;;;;;;;5.70;3.25;;;;;;;;;;5049632;28;20075;-74
2021/05/08 07:20:53;;;;;;;5.07;3.05;;;;;;;;;;5044980;28;20056;-73
2021/05/08 07:23:20;;;;;;;5.35;3.25;;;;;;;;;;5039696;28;20429;-74
2021/05/08 07:25:46;;;;;;;3.58;2.90;;;;;;;;;;5040046;28;20055;-74
2021/05/08 07:28:16;;;;;;;5.75;3.30;;;;;;;;;;5032045;28;20037;-74
2021/05/08 07:30:42;;;;;;;7.10;3.42;;;;;;;;;;5029913;28;20030;-75
2021/05/08 07:33:09;;;;;;;4.10;2.97;;;;;;;;;;5047339;28;20056;-74
2021/05/08 07:35:36;;;;;;;6.07;3.35;;;;;;;;;;5049778;28;20025;-75
2021/05/08 07:38:02;;;;;;;4.20;2.90;;;;;;;;;;5049521;28;20025;-74
2021/05/08 07:40:30;;;;;;;5.00;3.22;;;;;;;;;;5049469;28;20050;-74
2021/05/08 07:42:56;;;;;;;5.70;2.90;;;;;;;;;;5049473;28;20596;-74
2021/05/08 07:45:22;;;;;;;3.90;3.05;;;;;;;;;;5049554;28;20039;-74
2021/05/08 07:47:48;;;;;;;6.47;3.38;;;;;;;;;;5049539;28;20037;-73
2021/05/08 07:50:15;;;;;;;5.43;3.17;;;;;;;;;;5049683;28;20037;-74
2021/05/08 07:52:41;;;;;;;3.53;3.10;;;;;;;;;;5050448;28;20373;-75
2021/05/08 07:55:07;;;;;;;3.92;2.88;;;;;;;;;;5065054;28;20511;-74
2021/05/08 07:57:33;;;;;;;4.10;3.20;;;;;;;;;;5063702;28;20029;-75
2021/05/08 07:59:59;;;;;;;5.50;3.47;;;;;;;;;;5052952;28;20511;-76
2021/05/08 08:02:25;;;;;;;4.90;2.83;;;;;;;;;;5052407;28;20052;-75
2021/05/08 08:04:51;;;;;;;4.97;3.38;;;;;;;;;;5052772;28;20025;-75
2021/05/08 08:07:17;;;;;;;6.35;3.38;;;;;;;;;;5053272;28;20017;-75
2021/05/08 08:09:44;;;;;;;5.00;3.05;;;;;;;;;;5052633;28;20021;-75
2021/05/08 08:12:11;;;;;;;4.40;3.17;;;;;;;;;;5052879;28;20100;-75
2021/05/08 08:14:38;;;;;;;4.50;2.90;;;;;;;;;;5052701;28;20057;-75
2021/05/08 08:17:04;;;;;;;4.35;2.80;;;;;;;;;;5052844;28;20029;-75
2021/05/08 08:19:30;;;;;;;4.43;2.90;;;;;;;;;;5052836;28;20059;-75
2021/05/08 08:21:57;;;;;;;4.32;3.20;;;;;;;;;;5052994;28;20552;-75
2021/05/08 08:24:23;;;;;;;3.83;3.10;;;;;;;;;;5034236;28;20365;-76
2021/05/08 08:26:49;;;;;;;4.70;3.45;;;;;;;;;;5052597;28;20029;-75
2021/05/08 08:29:16;;;;;;;5.35;3.30;;;;;;;;;;5061652;28;20102;-75
2021/05/08 08:31:42;;;;;;;6.75;3.88;;;;;;;;;;5053522;28;20518;-75
2021/05/08 08:34:08;;;;;;;4.88;3.50;;;;;;;;;;5071930;28;20119;-75
2021/05/08 08:36:34;;;;;;;3.78;3.03;;;;;;;;;;5071808;28;20468;-75
2021/05/08 08:39:00;;;;;;;4.28;3.30;;;;;;;;;;5071985;28;20043;-76
2021/05/08 08:41:27;;;;;;;5.82;2.95;;;;;;;;;;5053893;28;20020;-75
2021/05/08 08:43:53;;;;;;;6.05;3.40;;;;;;;;;;5072064;28;20079;-75
2021/05/08 08:46:20;;;;;;;4.43;3.40;;;;;;;;;;5071932;28;20376;-75
2021/05/08 08:48:46;;;;;;;4.95;3.40;;;;;;;;;;5072145;28;20032;-75
2021/05/08 08:51:15;;;;;;;5.13;3.15;;;;;;;;;;5053418;28;20115;-75
2021/05/08 08:53:42;;;;;;;6.65;3.17;;;;;;;;;;5071366;28;20085;-76
2021/05/08 08:56:08;;;;;;;4.90;3.20;;;;;;;;;;5071611;28;20109;-76
2021/05/08 08:58:35;;;;;;;4.47;3.40;;;;;;;;;;5071485;28;20035;-76
2021/05/08 09:01:03;;;;;;;4.45;3.25;;;;;;;;;;5071377;28;20016;-76
2021/05/08 09:03:29;;;;;;;5.25;3.50;;;;;;;;;;5071159;28;20032;-74
2021/05/08 09:05:55;;;;;;;5.88;3.45;;;;;;;;;;5071455;28;20031;-76
2021/05/08 09:08:21;;;;;;;4.60;3.17;;;;;;;;;;5070929;28;20048;-76
2021/05/08 09:10:49;;;;;;;6.10;3.90;;;;;;;;;;5071113;28;20020;-75
2021/05/08 09:13:17;;;;;;;5.32;3.20;;;;;;;;;;5071178;28;20033;-74
2021/05/08 09:15:45;;;;;;;5.10;2.65;;;;;;;;;;5071491;28;20544;-75
2021/05/08 09:18:34;;;;;;;4.53;3.03;;;;;;;;;;5071826;28;20051;-76
2021/05/08 09:21:00;;;;;;;6.10;3.35;;;;;;;;;;5071284;28;20024;-76
2021/05/08 09:23:31;;;;;;;5.25;3.63;;;;;;;;;;5071410;28;20059;-75
2021/05/08 09:25:57;;;;;;;5.45;3.30;;;;;;;;;;5071430;28;20468;-76
2021/05/08 09:28:23;;;;;;;6.03;3.40;;;;;;;;;;5064925;28;20038;-76
2021/05/08 09:30:50;;;;;;;5.68;3.42;;;;;;;;;;5051777;28;20060;-75
2021/05/08 09:33:26;;;;;;;4.97;2.65;;;;;;;;;;5050935;28;20091;-75
2021/05/08 09:35:59;;;;;;;4.15;3.05;;;;;;;;;;5051097;28;20083;-75
2021/05/08 09:38:25;;;;;;;;;;;;;;;;;;5051550;28;20108;-76
2021/05/08 09:40:52;;;;;;;4.55;3.17;;;;;;;;;;5048786;28;19992;-76
2021/05/08 09:43:22;;;;;;;5.45;3.35;;;;;;;;;;5051209;28;20052;-74
2021/05/08 09:45:52;;;;;;;5.68;3.67;;;;;;;;;;5032672;28;20441;-75
2021/05/08 09:48:21;;;;;;;5.50;3.20;;;;;;;;;;5050791;28;20032;-76
2021/05/08 09:50:47;;;;;;;5.03;3.20;;;;;;;;;;5050905;28;20031;-75
2021/05/08 09:53:25;;;;;;;4.10;2.83;;;;;;;;;;5051005;28;20468;-75
2021/05/08 09:55:51;;;;;;;3.63;2.85;;;;;;;;;;5050717;28;20035;-74
2021/05/08 09:58:20;;;;;;;4.97;3.40;;;;;;;;;;5050864;28;20491;-76
2021/05/08 10:00:47;;;;;;;6.70;3.33;;;;;;;;;;5050842;28;20029;-75
2021/05/08 10:03:14;;;;;;;3.85;3.03;;;;;;;;;;5049506;28;20532;-74
2021/05/08 10:05:41;;;;;;;6.03;3.50;;;;;;;;;;5050411;28;20059;-74
2021/05/08 10:08:08;;;;;;;4.13;2.80;;;;;;;;;;5050433;28;20029;-74
2021/05/08 10:10:34;;;;;;;4.90;3.67;;;;;;;;;;5050696;28;20021;-73
2021/05/08 10:13:02;;;;;;;4.97;3.30;;;;;;;;;;5050638;28;20029;-75
2021/05/08 10:15:28;;;;;;;5.80;4.00;;;;;;;;;;5032671;28;20017;-75
2021/05/08 10:17:55;;;;;;;4.45;3.47;;;;;;;;;;5050621;28;20031;-75
2021/05/08 10:20:21;;;;;;;3.60;2.60;;;;;;;;;;5049571;28;20075;-76
2021/05/08 10:22:50;;;;;;;3.88;2.70;;;;;;;;;;5032450;28;20028;-75
2021/05/08 10:25:16;;;;;;;4.00;3.10;;;;;;;;;;5048664;28;20440;-74
2021/05/08 10:27:42;;;;;;;4.82;3.30;;;;;;;;;;5048745;28;20024;-74
2021/05/08 10:30:15;;;;;;;5.10;3.78;;;;;;;;;;5055087;28;20064;-75
2021/05/08 10:32:44;;;;;;;6.25;3.60;;;;;;;;;;5069975;28;20128;-75
2021/05/08 10:35:12;;;;;;;4.38;3.45;;;;;;;;;;5070345;28;20036;-74
2021/05/08 10:37:38;;;;;;;4.80;3.42;;;;;;;;;;5052425;28;20031;-74
2021/05/08 10:40:06;;;;;;;5.93;3.78;;;;;;;;;;5070404;28;20089;-74
2021/05/08 10:42:49;;;;;;;5.15;3.90;;;;;;;;;;5052599;28;20020;-75
2021/05/08 10:45:21;;;;;;;5.47;3.47;;;;;;;;;;5069987;28;20082;-75
2021/05/08 10:47:59;;;;;;;5.22;3.75;;;;;;;;;;5067628;28;20024;-74
2021/05/08 10:50:31;;;;;;;5.50;3.50;;;;;;;;;;5069889;28;20032;-75
2021/05/08 10:53:01;;;;;;;4.80;3.83;;;;;;;;;;5070222;28;20369;-75
2021/05/08 10:55:31;;;;;;;5.38;3.72;;;;;;;;;;5069828;28;20422;-75
2021/05/08 10:58:18;;;;;;;6.25;4.07;;;;;;;;;;5052257;28;20028;-74
2021/05/08 11:00:44;;;;;;;5.82;3.80;;;;;;;;;;5070142;28;20044;-75
2021/05/08 11:03:10;;;;;;;5.40;4.00;;;;;;;;;;5069749;28;20045;-75
2021/05/08 11:05:39;;;;;;;5.43;4.05;;;;;;;;;;5070267;28;20040;-74
2021/05/08 11:08:24;;;;;;;7.22;4.60;;;;;;;;;;5052094;28;20028;-74
2021/05/08 11:10:59;;;;;;;4.72;3.90;;;;;;;;;;5070173;28;20036;-74
2021/05/08 11:13:26;;;;;;;7.10;4.30;;;;;;;;;;5051898;28;20090;-74
2021/05/08 11:18:40;;;;;;;7.28;5.68;;;;;;;;;;5068583;28;20086;-75
2021/05/08 11:21:09;;;;;;;4.97;3.75;;;;;;;;;;5039769;28;20129;-74
2021/05/08 11:23:46;;;;;;;6.47;5.28;;;;;;;;;;5051929;28;20028;-74
2021/05/08 11:26:30;;;;;;;7.13;5.10;;;;;;;;;;5051916;28;20086;-74
2021/05/08 11:29:03;;;;;;;6.05;4.78;;;;;;;;;;5048589;28;20555;-74
2021/05/08 11:31:48;;;;;;;6.43;4.53;;;;;;;;;;5037336;28;20400;-73
2021/05/08 11:34:21;;;;;;;6.32;5.22;;;;;;;;;;5058651;28;20051;-72
2021/05/08 11:37:04;;;;;;;7.97;4.60;;;;;;;;;;5066009;28;20029;-73
2021/05/08 11:39:34;;;;;;;7.65;4.43;;;;;;;;;;5054725;28;20040;-72
2021/05/08 11:42:01;;;;;;;7.85;5.20;;;;;;;;;;5053099;28;20079;-73
2021/05/08 11:44:32;;;;;;;6.63;4.60;;;;;;;;;;5053250;28;20107;-73
2021/05/08 11:47:04;;;;;;;7.90;5.32;;;;;;;;;;5053611;28;20163;-73
2021/05/08 11:49:32;;;;;;;8.82;4.95;;;;;;;;;;5053501;28;20014;-72
2021/05/08 11:51:58;;;;;;;6.80;4.57;;;;;;;;;;5053341;28;20528;-73
2021/05/08 11:54:26;;;;;;;7.10;5.20;;;;;;;;;;5052943;28;20033;-73
2021/05/08 11:56:52;;;;;;;6.90;4.70;;;;;;;;;;5053176;28;20053;-72
2021/05/08 11:59:29;;;;;;;8.05;5.32;;;;;;;;;;5053174;28;20396;-73
2021/05/08 12:02:09;;;;;;;8.27;4.82;;;;;;;;;;5056629;28;20473;-73
2021/05/08 12:04:48;;;;;;;11.63;5.50;;;;;;;;;;5064320;28;20674;-74
2021/05/08 12:07:17;;;;;;;6.93;5.13;;;;;;;;;;5061915;28;20123;-73
2021/05/08 12:09:43;;;;;;;5.45;4.50;;;;;;;;;;5053094;28;20058;-73
2021/05/08 12:12:09;;;;;;;5.53;4.60;;;;;;;;;;5053279;28;20029;-75
2021/05/08 12:14:42;;;;;;;6.75;4.80;;;;;;;;;;5052734;28;20033;-72
2021/05/08 12:17:09;;;;;;;7.20;4.72;;;;;;;;;;5053138;28;20142;-75
2021/05/08 12:19:37;;;;;;;8.38;4.90;;;;;;;;;;5052455;28;20021;-73
2021/05/08 12:22:03;;;;;;;5.88;4.43;;;;;;;;;;5052700;28;20037;-72
2021/05/08 12:24:29;;;;;;;8.23;5.13;;;;;;;;;;5052786;28;20402;-72
2021/05/08 12:26:55;;;;;;;6.70;5.00;;;;;;;;;;5052792;28;20348;-72
2021/05/08 12:29:21;;;;;;;5.97;4.60;;;;;;;;;;5052741;28;20104;-71
2021/05/08 12:31:47;;;;;;;7.57;5.30;;;;;;;;;;5034172;28;20489;-74
2021/05/08 12:34:16;;;;;;;12.40;7.38;;;;;;;;;;5052224;28;20080;-75
2021/05/08 12:36:58;;;;;;;7.18;4.50;;;;;;;;;;5052774;28;20445;-74
2021/05/08 12:39:24;;;;;;;6.35;4.53;;;;;;;;;;5052798;28;20056;-75
2021/05/08 12:41:53;;;;;;;6.40;4.68;;;;;;;;;;5051976;28;20021;-75
2021/05/08 12:44:27;;;;;;;5.88;4.15;;;;;;;;;;5052603;28;20029;-74
2021/05/08 12:46:59;;;;;;;5.75;4.68;;;;;;;;;;5052139;28;20097;-74
2021/05/08 12:49:25;;;;;;;7.20;4.47;;;;;;;;;;5062220;28;20086;-74
2021/05/08 12:51:52;;;;;;;5.72;4.50;;;;;;;;;;5072066;28;20055;-74
2021/05/08 12:54:23;;;;;;;8.05;4.72;;;;;;;;;;5071788;28;20426;-74
2021/05/08 12:56:50;;;;;;;5.28;4.38;;;;;;;;;;5072269;28;20024;-73
2021/05/08 12:59:22;;;;;;;6.72;4.70;;;;;;;;;;5072359;28;20032;-73
2021/05/08 13:01:49;;;;;;;5.97;4.93;;;;;;;;;;5072155;28;20037;-73
2021/05/08 13:04:17;;;;;;;5.18;4.20;;;;;;;;;;5072281;28;20024;-76
2021/05/08 13:06:43;;;;;;;5.57;4.10;;;;;;;;;;5066089;28;20741;-71
2021/05/08 13:09:18;;;;;;;5.82;3.88;;;;;;;;;;5055824;28;20107;-71
2021/05/08 13:11:44;;;;;;;6.07;4.22;;;;;;;;;;5052121;28;20079;-71
2021/05/08 13:14:16;;;;;;;8.70;5.03;;;;;;;;;;5051826;28;20069;-71
2021/05/08 13:16:43;;;;;;;5.88;3.90;;;;;;;;;;5052278;28;20124;-71
2021/05/08 13:19:09;;;;;;;7.70;4.35;;;;;;;;;;5034124;28;20456;-70
2021/05/08 13:21:35;;;;;;;7.47;4.72;;;;;;;;;;5050313;28;20028;-71
2021/05/08 13:24:01;;;;;;;7.45;4.80;;;;;;;;;;5069468;28;20044;-71
2021/05/08 13:26:27;;;;;;;5.72;4.35;;;;;;;;;;5071189;28;20438;-72
2021/05/08 13:28:53;;;;;;;7.15;4.97;;;;;;;;;;5068764;28;20032;-72
2021/05/08 13:31:19;;;;;;;7.15;4.65;;;;;;;;;;5071120;28;20036;-71
2021/05/08 13:33:47;;;;;;;6.53;4.60;;;;;;;;;;5071143;28;20042;-72
2021/05/08 13:36:13;;;;;;;5.97;4.60;;;;;;;;;;5071716;28;20017;-73
2021/05/08 13:38:39;;;;;;;7.28;4.57;;;;;;;;;;5071465;28;20111;-73
2021/05/08 13:41:05;;;;;;;6.03;4.40;;;;;;;;;;5071097;28;20059;-75
2021/05/08 13:43:31;;;;;;;5.32;4.32;;;;;;;;;;5071325;28;20032;-73
2021/05/08 13:45:57;;;;;;;5.57;4.30;;;;;;;;;;5071410;28;20067;-72
2021/05/08 13:48:23;;;;;;;13.82;4.03;;;;;;;;;;5071513;28;20032;-75
2021/05/08 13:50:49;;;;;;;5.65;4.03;;;;;;;;;;5052948;28;20043;-75
2021/05/08 13:53:15;;;;;;;5.60;4.40;;;;;;;;;;5052837;28;20459;-71
2021/05/08 13:55:41;;;;;;;5.55;4.30;;;;;;;;;;5070418;28;20024;-73
2021/05/08 13:58:08;;;;;;;7.57;4.18;;;;;;;;;;5053120;28;20099;-73
2021/05/08 14:00:34;;;;;;;7.55;3.90;;;;;;;;;;5062718;28;20032;-73
2021/05/08 14:03:00;;;;;;;5.47;3.97;;;;;;;;;;5037451;28;20040;-71
2021/05/08 14:05:26;;;;;;;4.70;3.50;;;;;;;;;;5051041;28;20127;-72
2021/05/08 14:07:52;;;;;;;5.35;3.67;;;;;;;;;;5050872;28;20107;-71
2021/05/08 14:10:18;;;;;;;6.03;4.05;;;;;;;;;;5051312;28;20021;-70
2021/05/08 14:12:45;;;;;;;6.82;4.53;;;;;;;;;;5050699;28;20554;-71
2021/05/08 14:15:11;;;;;;;8.65;4.53;;;;;;;;;;5050731;28;20033;-72
2021/05/08 14:17:38;;;;;;;6.57;4.55;;;;;;;;;;5050816;28;20029;-71
2021/05/08 14:20:05;;;;;;;6.45;4.75;;;;;;;;;;5060205;28;20029;-72
2021/05/08 14:22:32;;;;;;;6.63;4.20;;;;;;;;;;5049597;28;20059;-72
2021/05/08 14:24:58;;;;;;;6.38;4.40;;;;;;;;;;5049288;28;20029;-71
2021/05/08 14:27:24;;;;;;;7.03;4.60;;;;;;;;;;5050712;28;20052;-71
2021/05/08 14:29:50;;;;;;;5.38;4.10;;;;;;;;;;5050328;28;20025;-72
2021/05/08 14:32:16;;;;;;;7.13;4.70;;;;;;;;;;5050248;28;20111;-71
2021/05/08 14:34:42;;;;;;;6.40;4.20;;;;;;;;;;5050791;28;20041;-71
2021/05/08 14:37:09;;;;;;;6.10;3.80;;;;;;;;;;5050678;28;20407;-71
2021/05/08 14:39:35;;;;;;;7.15;3.80;;;;;;;;;;5050443;28;20017;-72
2021/05/08 14:42:01;;;;;;;6.60;4.53;;;;;;;;;;5050763;28;20037;-71
2021/05/08 14:44:28;;;;;;;7.68;4.30;;;;;;;;;;5050798;28;20484;-72
2021/05/08 14:46:54;;;;;;;6.15;4.63;;;;;;;;;;5050783;28;20025;-73